Silver Orla — V7FI9 — position and weather

sailwx.info

Track history (hours):
 
Tides and Currents Weather Stations Pressure Air Temp Water Temp Dewpoint Dewpoint Depression Visibility Wind Speed Wind Dir Waves Ship Positions

Silver Orla

Last reported at 2018-Jun-13 16:27 UTC. Time now 2018-Jun-21 14:13 UTC.
Position N 27°32' W 015°15'.

Length 183 m; draft 10.4 m.

Type: Tanker. MMSI: 538005601.

Date/timePositionNaut miles runAvg speedWind from/ knotsBaromVisibWave heightAir tempDewpointWater temp
2018-Jun-13 16:27N 27°32' W 015°15'613.2
2018-Jun-13 15:59N 27°38' W 015°13'613.2
2018-Jun-13 15:30N 27°44' W 015°10'713.6
2018-Jun-13 15:00N 27°50' W 015°07'713.6
2018-Jun-13 14:30N 27°57' W 015°05'713.2
2018-Jun-13 14:00N 28°03' W 015°02'613.0
2018-Jun-13 13:30N 28°09' W 014°60'713.3
2018-Jun-13 13:00N 28°15' W 014°57'713.2
2018-Jun-13 12:30N 28°21' W 014°54'713.6
2018-Jun-13 12:00N 28°27' W 014°49'713.5
2018-Jun-13 11:30N 28°32' W 014°45'713.5
2018-Jun-13 11:00N 28°38' W 014°41'713.2
2018-Jun-13 10:30N 28°43' W 014°36'3013.4
2018-Jun-13 08:15N 29°08' W 014°16'2113.7
2018-Jun-13 06:41N 29°25' W 014°02'414.2
2018-Jun-13 06:26N 29°28' W 013°59'2214.3
2018-Jun-13 04:53N 29°45' W 013°43'56812.1
2018-Jun-11 05:51N 36°07' W 005°22'0 0.0
2018-Jun-11 05:27N 36°07' W 005°22'0 0.0
2018-Jun-11 04:21N 36°07' W 005°22'0 0.0
2018-Jun-11 03:57N 36°07' W 005°22'0 0.2
2018-Jun-11 03:30N 36°07' W 005°22'0 0.1
2018-Jun-11 02:57N 36°07' W 005°22'0 0.0
2018-Jun-11 02:27N 36°07' W 005°22'0 0.1
2018-Jun-11 01:57N 36°07' W 005°22'0 0.2
2018-Jun-11 01:27N 36°07' W 005°22'0 0.2
2018-Jun-11 00:57N 36°07' W 005°22'0 0.2
2018-Jun-11 00:27N 36°07' W 005°22'1 2.9
2018-Jun-11 00:00N 36°06' W 005°21'3 6.0
2018-Jun-10 23:31N 36°05' W 005°18'5 9.7
2018-Jun-10 23:00N 36°06' W 005°12'3 3.8
2018-Jun-10 22:14N 36°06' W 005°08'0 1.5
2018-Jun-10 21:59N 36°06' W 005°09'1 1.3
2018-Jun-10 21:26N 36°06' W 005°10'0 1.0
2018-Jun-10 20:59N 36°06' W 005°10'1 1.0
2018-Jun-10 20:29N 36°06' W 005°11'1 1.1
2018-Jun-10 19:56N 36°06' W 005°11'0 0.8
2018-Jun-10 19:27N 36°07' W 005°12'2 4.8
2018-Jun-10 19:00N 36°07' W 005°09'3 4.0
2018-Jun-10 18:22N 36°08' W 005°06'1 1.5
2018-Jun-10 17:58N 36°08' W 005°07'1 1.5
2018-Jun-10 17:30N 36°08' W 005°08'1 1.5
2018-Jun-10 17:00N 36°08' W 005°09'1 1.5
2018-Jun-10 16:31N 36°08' W 005°10'1 1.5
2018-Jun-10 16:00N 36°08' W 005°10'1 2.1
2018-Jun-10 15:21N 36°07' W 005°09'21111.1
2018-Jun-09 20:20N 36°21' W 000°48'512.9
2018-Jun-09 19:58N 36°22' W 000°42'612.9
2018-Jun-09 19:30N 36°24' W 000°35'713.0
2018-Jun-09 19:00N 36°26' W 000°27'712.6
2018-Jun-09 18:26N 36°28' W 000°19'2112.4
2018-Jun-09 16:43N 36°33' E 000°07'312.7
2018-Jun-09 16:30N 36°34' E 000°10'612.6
2018-Jun-09 16:00N 36°36' E 000°18'1312.8
2018-Jun-09 15:00N 36°39' E 000°33'612.3
2018-Jun-09 14:30N 36°41' E 000°40'612.1
2018-Jun-09 14:00N 36°42' E 000°48'612.4
2018-Jun-09 13:30N 36°44' E 000°55'612.5
2018-Jun-09 13:00N 36°46' E 001°02'812.7
2018-Jun-09 12:21N 36°49' E 001°12'512.6
2018-Jun-09 11:59N 36°49' E 001°18'612.6
2018-Jun-09 11:30N 36°51' E 001°25'712.6
2018-Jun-09 10:57N 36°53' E 001°34'612.4
2018-Jun-09 10:29N 36°54' E 001°40'612.8
2018-Jun-09 09:59N 36°56' E 001°48'612.7
2018-Jun-09 09:30N 36°58' E 001°56'812.4
2018-Jun-09 08:51N 36°60' E 002°05'411.7
2018-Jun-09 08:30N 37°01' E 002°10'611.2
2018-Jun-09 08:00N 37°02' E 002°17'1111.6
2018-Jun-09 07:06N 37°05' E 002°30'111.8
2018-Jun-09 07:00N 37°05' E 002°31'612.3
2018-Jun-09 06:30N 37°07' E 002°39'912.6
2018-Jun-09 05:47N 37°10' E 002°50'412.8
2018-Jun-09 05:28N 37°11' E 002°54'2313.2
2018-Jun-09 03:42N 37°14' E 003°23'313.7
2018-Jun-09 03:30N 37°14' E 003°27'713.6
2018-Jun-09 03:00N 37°15' E 003°35'713.4
2018-Jun-09 02:30N 37°15' E 003°44'713.3
2018-Jun-09 02:00N 37°16' E 003°52'713.3
2018-Jun-09 01:30N 37°17' E 004°00'713.2
2018-Jun-09 01:00N 37°18' E 004°09'713.1
2018-Jun-09 00:30N 37°19' E 004°17'613.0
2018-Jun-09 00:00N 37°20' E 004°25'612.9
2018-Jun-08 23:30N 37°20' E 004°33'612.8
2018-Jun-08 23:00N 37°21' E 004°41'612.5
2018-Jun-08 22:30N 37°22' E 004°49'612.6
2018-Jun-08 22:00N 37°23' E 004°56'712.6
2018-Jun-08 21:28N 37°24' E 005°05'812.8
2018-Jun-08 20:49N 37°24' E 005°15'413.2
2018-Jun-08 20:30N 37°25' E 005°21'713.4
2018-Jun-08 20:00N 37°26' E 005°29'713.5
2018-Jun-08 19:30N 37°26' E 005°37'36712.6
2018-Jun-07 14:15N 36°40' E 013°14'313.7
2018-Jun-07 14:00N 36°39' E 013°18'713.8
2018-Jun-07 13:30N 36°37' E 013°26'913.3
2018-Jun-07 12:51N 36°35' E 013°36'513.1
2018-Jun-07 12:30N 36°33' E 013°42'713.3
2018-Jun-07 12:00N 36°32' E 013°50'713.5
2018-Jun-07 11:30N 36°30' E 013°58'713.8
2018-Jun-07 11:00N 36°28' E 014°06'713.8
2018-Jun-07 10:30N 36°26' E 014°14'713.8
2018-Jun-07 10:00N 36°24' E 014°23'913.7
2018-Jun-07 09:23N 36°22' E 014°33'2513.3
2018-Jun-07 07:31N 36°20' E 015°04'413.2
2018-Jun-07 07:12N 36°20' E 015°09'313.2
2018-Jun-07 06:59N 36°20' E 015°12'713.3
2018-Jun-07 06:29N 36°19' E 015°21'713.4
2018-Jun-07 05:59N 36°19' E 015°29'1413.6
2018-Jun-07 04:55N 36°18' E 015°47'37212.8
2018-Jun-05 23:53N 36°32' E 023°29'513.9
2018-Jun-05 23:30N 36°36' E 023°32'713.6
2018-Jun-05 23:00N 36°42' E 023°37'913.4
2018-Jun-05 22:21N 36°50' E 023°42'513.4
2018-Jun-05 22:00N 36°54' E 023°45'713.3
2018-Jun-05 21:30N 37°00' E 023°48'713.5
2018-Jun-05 20:59N 37°06' E 023°52'613.3
2018-Jun-05 20:31N 37°12' E 023°56'713.7
2018-Jun-05 20:00N 37°18' E 023°59'713.9
2018-Jun-05 19:31N 37°25' E 024°03'713.3
2018-Jun-05 19:01N 37°31' E 024°06'1512.9
2018-Jun-05 17:50N 37°44' E 024°16'813.1
2018-Jun-05 17:14N 37°49' E 024°24'13412.7
2018-Jun-05 06:43N 39°48' E 025°43'513.4
2018-Jun-05 06:23N 39°51' E 025°46'513.7
2018-Jun-05 06:00N 39°55' E 025°51'713.7
2018-Jun-05 05:28N 39°60' E 025°58'612.9
2018-Jun-05 04:59N 40°01' E 026°06'5 9.5
2018-Jun-05 04:25N 40°02' E 026°13'11 9.4
2018-Jun-05 03:15N 40°10' E 026°23'148 5.8
2018-Jun-04 01:52N 41°27' E 029°10'1 0.2
2018-Jun-03 23:13N 41°27' E 029°09'0 0.1
2018-Jun-03 22:34N 41°27' E 029°09'0 0.1
2018-Jun-03 22:28N 41°27' E 029°09'0 0.0
2018-Jun-03 19:58N 41°27' E 029°09'0 0.2
2018-Jun-03 18:04N 41°27' E 029°09'0 0.3
2018-Jun-03 17:16N 41°27' E 029°10'0 0.3
2018-Jun-03 16:46N 41°28' E 029°10'0 0.4
2018-Jun-03 16:28N 41°28' E 029°10'  
Track history (hours):
 
Tides and Currents Weather Stations Pressure Air Temp Water Temp Dewpoint Dewpoint Depression Visibility Wind Speed Wind Dir Waves Ship Positions

Silver Orla

Last reported at 2018-Jun-13 16:27 UTC. Time now 2018-Jun-21 14:13 UTC.
Position N 27°32' W 015°15'.

Length 183 m; draft 10.4 m.

Type: Tanker. MMSI: 538005601.

Date/timePositionNaut miles runAvg speedWind from/ knotsBaromVisibWave heightAir tempDewpointWater temp
2018-Jun-13 16:27N 27°32' W 015°15'613.2
2018-Jun-13 15:59N 27°38' W 015°13'613.2
2018-Jun-13 15:30N 27°44' W 015°10'713.6
2018-Jun-13 15:00N 27°50' W 015°07'713.6
2018-Jun-13 14:30N 27°57' W 015°05'713.2
2018-Jun-13 14:00N 28°03' W 015°02'613.0
2018-Jun-13 13:30N 28°09' W 014°60'713.3
2018-Jun-13 13:00N 28°15' W 014°57'713.2
2018-Jun-13 12:30N 28°21' W 014°54'713.6
2018-Jun-13 12:00N 28°27' W 014°49'713.5
2018-Jun-13 11:30N 28°32' W 014°45'713.5
2018-Jun-13 11:00N 28°38' W 014°41'713.2
2018-Jun-13 10:30N 28°43' W 014°36'3013.4
2018-Jun-13 08:15N 29°08' W 014°16'2113.7
2018-Jun-13 06:41N 29°25' W 014°02'414.2
2018-Jun-13 06:26N 29°28' W 013°59'2214.3
2018-Jun-13 04:53N 29°45' W 013°43'56812.1
2018-Jun-11 05:51N 36°07' W 005°22'0 0.0
2018-Jun-11 05:27N 36°07' W 005°22'0 0.0
2018-Jun-11 04:21N 36°07' W 005°22'0 0.0
2018-Jun-11 03:57N 36°07' W 005°22'0 0.2
2018-Jun-11 03:30N 36°07' W 005°22'0 0.1
2018-Jun-11 02:57N 36°07' W 005°22'0 0.0
2018-Jun-11 02:27N 36°07' W 005°22'0 0.1
2018-Jun-11 01:57N 36°07' W 005°22'0 0.2
2018-Jun-11 01:27N 36°07' W 005°22'0 0.2
2018-Jun-11 00:57N 36°07' W 005°22'0 0.2
2018-Jun-11 00:27N 36°07' W 005°22'1 2.9
2018-Jun-11 00:00N 36°06' W 005°21'3 6.0
2018-Jun-10 23:31N 36°05' W 005°18'5 9.7
2018-Jun-10 23:00N 36°06' W 005°12'3 3.8
2018-Jun-10 22:14N 36°06' W 005°08'0 1.5
2018-Jun-10 21:59N 36°06' W 005°09'1 1.3
2018-Jun-10 21:26N 36°06' W 005°10'0 1.0
2018-Jun-10 20:59N 36°06' W 005°10'1 1.0
2018-Jun-10 20:29N 36°06' W 005°11'1 1.1
2018-Jun-10 19:56N 36°06' W 005°11'0 0.8
2018-Jun-10 19:27N 36°07' W 005°12'2 4.8
2018-Jun-10 19:00N 36°07' W 005°09'3 4.0
2018-Jun-10 18:22N 36°08' W 005°06'1 1.5
2018-Jun-10 17:58N 36°08' W 005°07'1 1.5
2018-Jun-10 17:30N 36°08' W 005°08'1 1.5
2018-Jun-10 17:00N 36°08' W 005°09'1 1.5
2018-Jun-10 16:31N 36°08' W 005°10'1 1.5
2018-Jun-10 16:00N 36°08' W 005°10'1 2.1
2018-Jun-10 15:21N 36°07' W 005°09'21111.1
2018-Jun-09 20:20N 36°21' W 000°48'512.9
2018-Jun-09 19:58N 36°22' W 000°42'612.9
2018-Jun-09 19:30N 36°24' W 000°35'713.0
2018-Jun-09 19:00N 36°26' W 000°27'712.6
2018-Jun-09 18:26N 36°28' W 000°19'2112.4
2018-Jun-09 16:43N 36°33' E 000°07'312.7
2018-Jun-09 16:30N 36°34' E 000°10'612.6
2018-Jun-09 16:00N 36°36' E 000°18'1312.8
2018-Jun-09 15:00N 36°39' E 000°33'612.3
2018-Jun-09 14:30N 36°41' E 000°40'612.1
2018-Jun-09 14:00N 36°42' E 000°48'612.4
2018-Jun-09 13:30N 36°44' E 000°55'612.5
2018-Jun-09 13:00N 36°46' E 001°02'812.7
2018-Jun-09 12:21N 36°49' E 001°12'512.6
2018-Jun-09 11:59N 36°49' E 001°18'612.6
2018-Jun-09 11:30N 36°51' E 001°25'712.6
2018-Jun-09 10:57N 36°53' E 001°34'612.4
2018-Jun-09 10:29N 36°54' E 001°40'612.8
2018-Jun-09 09:59N 36°56' E 001°48'612.7
2018-Jun-09 09:30N 36°58' E 001°56'812.4
2018-Jun-09 08:51N 36°60' E 002°05'411.7
2018-Jun-09 08:30N 37°01' E 002°10'611.2
2018-Jun-09 08:00N 37°02' E 002°17'1111.6
2018-Jun-09 07:06N 37°05' E 002°30'111.8
2018-Jun-09 07:00N 37°05' E 002°31'612.3
2018-Jun-09 06:30N 37°07' E 002°39'912.6
2018-Jun-09 05:47N 37°10' E 002°50'412.8
2018-Jun-09 05:28N 37°11' E 002°54'2313.2
2018-Jun-09 03:42N 37°14' E 003°23'313.7
2018-Jun-09 03:30N 37°14' E 003°27'713.6
2018-Jun-09 03:00N 37°15' E 003°35'713.4
2018-Jun-09 02:30N 37°15' E 003°44'713.3
2018-Jun-09 02:00N 37°16' E 003°52'713.3
2018-Jun-09 01:30N 37°17' E 004°00'713.2
2018-Jun-09 01:00N 37°18' E 004°09'713.1
2018-Jun-09 00:30N 37°19' E 004°17'613.0
2018-Jun-09 00:00N 37°20' E 004°25'612.9
2018-Jun-08 23:30N 37°20' E 004°33'612.8
2018-Jun-08 23:00N 37°21' E 004°41'612.5
2018-Jun-08 22:30N 37°22' E 004°49'612.6
2018-Jun-08 22:00N 37°23' E 004°56'712.6
2018-Jun-08 21:28N 37°24' E 005°05'812.8
2018-Jun-08 20:49N 37°24' E 005°15'413.2
2018-Jun-08 20:30N 37°25' E 005°21'713.4
2018-Jun-08 20:00N 37°26' E 005°29'713.5
2018-Jun-08 19:30N 37°26' E 005°37'36712.6
2018-Jun-07 14:15N 36°40' E 013°14'313.7
2018-Jun-07 14:00N 36°39' E 013°18'713.8
2018-Jun-07 13:30N 36°37' E 013°26'913.3
2018-Jun-07 12:51N 36°35' E 013°36'513.1
2018-Jun-07 12:30N 36°33' E 013°42'713.3
2018-Jun-07 12:00N 36°32' E 013°50'713.5
2018-Jun-07 11:30N 36°30' E 013°58'713.8
2018-Jun-07 11:00N 36°28' E 014°06'713.8
2018-Jun-07 10:30N 36°26' E 014°14'713.8
2018-Jun-07 10:00N 36°24' E 014°23'913.7
2018-Jun-07 09:23N 36°22' E 014°33'2513.3
2018-Jun-07 07:31N 36°20' E 015°04'413.2
2018-Jun-07 07:12N 36°20' E 015°09'313.2
2018-Jun-07 06:59N 36°20' E 015°12'713.3
2018-Jun-07 06:29N 36°19' E 015°21'713.4
2018-Jun-07 05:59N 36°19' E 015°29'1413.6
2018-Jun-07 04:55N 36°18' E 015°47'37212.8
2018-Jun-05 23:53N 36°32' E 023°29'513.9
2018-Jun-05 23:30N 36°36' E 023°32'713.6
2018-Jun-05 23:00N 36°42' E 023°37'913.4
2018-Jun-05 22:21N 36°50' E 023°42'513.4
2018-Jun-05 22:00N 36°54' E 023°45'713.3
2018-Jun-05 21:30N 37°00' E 023°48'713.5
2018-Jun-05 20:59N 37°06' E 023°52'613.3
2018-Jun-05 20:31N 37°12' E 023°56'713.7
2018-Jun-05 20:00N 37°18' E 023°59'713.9
2018-Jun-05 19:31N 37°25' E 024°03'713.3
2018-Jun-05 19:01N 37°31' E 024°06'1512.9
2018-Jun-05 17:50N 37°44' E 024°16'813.1
2018-Jun-05 17:14N 37°49' E 024°24'13412.7
2018-Jun-05 06:43N 39°48' E 025°43'513.4
2018-Jun-05 06:23N 39°51' E 025°46'513.7
2018-Jun-05 06:00N 39°55' E 025°51'713.7
2018-Jun-05 05:28N 39°60' E 025°58'612.9
2018-Jun-05 04:59N 40°01' E 026°06'5 9.5
2018-Jun-05 04:25N 40°02' E 026°13'11 9.4
2018-Jun-05 03:15N 40°10' E 026°23'148 5.8
2018-Jun-04 01:52N 41°27' E 029°10'1 0.2
2018-Jun-03 23:13N 41°27' E 029°09'0 0.1
2018-Jun-03 22:34N 41°27' E 029°09'0 0.1
2018-Jun-03 22:28N 41°27' E 029°09'0 0.0
2018-Jun-03 19:58N 41°27' E 029°09'0 0.2
2018-Jun-03 18:04N 41°27' E 029°09'0 0.3
2018-Jun-03 17:16N 41°27' E 029°10'0 0.3
2018-Jun-03 16:46N 41°28' E 029°10'0 0.4
2018-Jun-03 16:28N 41°28' E 029°10'  

Dump ship's entire track history